sensor_id;sensor_type;location;lat;lon;timestamp;pressure;altitude;pressure_sealevel;temperature;humidity
7990;BME280;4040;42.848;23.034;2023-04-05T00:08:47;94443.38;;;0.91;100.00
7990;BME280;4040;42.848;23.034;2023-04-05T00:14:36;94449.09;;;0.93;100.00
7990;BME280;4040;42.848;23.034;2023-04-05T00:20:25;94434.84;;;0.82;100.00
7990;BME280;4040;42.848;23.034;2023-04-05T00:26:16;94422.00;;;0.65;100.00
7990;BME280;4040;42.848;23.034;2023-04-05T00:32:05;94432.06;;;0.75;100.00
7990;BME280;4040;42.848;23.034;2023-04-05T00:37:54;94428.84;;;0.85;100.00
7990;BME280;4040;42.848;23.034;2023-04-05T00:43:46;94433.88;;;0.90;100.00
7990;BME280;4040;42.848;23.034;2023-04-05T00:49:35;94436.94;;;0.92;100.00
7990;BME280;4040;42.848;23.034;2023-04-05T00:55:24;94430.78;;;0.88;100.00
7990;BME280;4040;42.848;23.034;2023-04-05T01:01:17;94417.13;;;0.86;100.00
7990;BME280;4040;42.848;23.034;2023-04-05T01:11:09;94448.94;;;1.05;100.00
7990;BME280;4040;42.848;23.034;2023-04-05T01:17:01;94452.84;;;1.11;100.00
7990;BME280;4040;42.848;23.034;2023-04-05T01:23:33;94445.47;;;1.20;100.00
7990;BME280;4040;42.848;23.034;2023-04-05T01:29:54;94448.63;;;1.29;100.00
7990;BME280;4040;42.848;23.034;2023-04-05T01:35:51;94451.44;;;1.17;100.00
7990;BME280;4040;42.848;23.034;2023-04-05T01:41:57;94448.19;;;1.05;100.00
7990;BME280;4040;42.848;23.034;2023-04-05T01:48:08;94455.22;;;1.16;100.00
7990;BME280;4040;42.848;23.034;2023-04-05T01:53:56;94453.81;;;1.22;100.00
7990;BME280;4040;42.848;23.034;2023-04-05T01:59:45;94468.88;;;1.18;100.00
7990;BME280;4040;42.848;23.034;2023-04-05T02:05:35;94454.38;;;1.12;100.00
7990;BME280;4040;42.848;23.034;2023-04-05T02:11:23;94409.88;;;0.64;100.00
7990;BME280;4040;42.848;23.034;2023-04-05T02:17:13;94474.19;;;1.18;100.00
7990;BME280;4040;42.848;23.034;2023-04-05T02:23:03;94469.03;;;1.25;100.00
7990;BME280;4040;42.848;23.034;2023-04-05T02:28:51;94461.47;;;1.27;100.00
7990;BME280;4040;42.848;23.034;2023-04-05T02:34:40;94466.69;;;1.20;100.00
7990;BME280;4040;42.848;23.034;2023-04-05T02:40:31;94456.66;;;1.14;100.00
7990;BME280;4040;42.848;23.034;2023-04-05T02:46:19;94458.41;;;1.25;100.00
7990;BME280;4040;42.848;23.034;2023-04-05T02:52:08;94462.75;;;1.14;100.00
7990;BME280;4040;42.848;23.034;2023-04-05T02:57:59;94461.22;;;1.13;100.00
7990;BME280;4040;42.848;23.034;2023-04-05T03:03:48;94458.84;;;1.27;100.00
7990;BME280;4040;42.848;23.034;2023-04-05T03:09:48;94454.00;;;1.33;100.00
7990;BME280;4040;42.848;23.034;2023-04-05T03:15:39;94452.97;;;1.18;100.00
7990;BME280;4040;42.848;23.034;2023-04-05T03:21:27;94453.41;;;1.20;100.00
7990;BME280;4040;42.848;23.034;2023-04-05T03:27:16;94451.75;;;1.35;100.00
7990;BME280;4040;42.848;23.034;2023-04-05T03:33:06;94448.78;;;1.36;100.00
7990;BME280;4040;42.848;23.034;2023-04-05T03:38:55;94457.03;;;1.31;100.00
7990;BME280;4040;42.848;23.034;2023-04-05T03:44:44;94455.91;;;1.32;100.00
7990;BME280;4040;42.848;23.034;2023-04-05T03:50:35;94455.75;;;1.25;100.00
7990;BME280;4040;42.848;23.034;2023-04-05T03:56:24;94471.38;;;1.30;100.00
7990;BME280;4040;42.848;23.034;2023-04-05T04:02:13;94474.41;;;1.29;100.00
7990;BME280;4040;42.848;23.034;2023-04-05T04:08:03;94460.94;;;1.18;100.00
7990;BME280;4040;42.848;23.034;2023-04-05T04:13:52;94485.19;;;1.39;100.00
7990;BME280;4040;42.848;23.034;2023-04-05T04:19:41;94480.47;;;1.29;100.00
7990;BME280;4040;42.848;23.034;2023-04-05T04:25:31;94458.84;;;1.08;100.00
7990;BME280;4040;42.848;23.034;2023-04-05T04:31:20;94495.84;;;1.20;100.00
7990;BME280;4040;42.848;23.034;2023-04-05T04:37:11;94480.97;;;1.16;100.00
7990;BME280;4040;42.848;23.034;2023-04-05T04:43:06;94498.91;;;1.41;100.00
7990;BME280;4040;42.848;23.034;2023-04-05T04:49:00;94501.13;;;1.39;100.00
7990;BME280;4040;42.848;23.034;2023-04-05T04:54:52;94500.78;;;1.22;100.00
7990;BME280;4040;42.848;23.034;2023-04-05T05:00:42;94510.75;;;1.28;100.00
7990;BME280;4040;42.848;23.034;2023-04-05T05:06:31;94489.28;;;1.14;100.00
7990;BME280;4040;42.848;23.034;2023-04-05T05:16:43;94500.13;;;1.66;100.00
7990;BME280;4040;42.848;23.034;2023-04-05T05:22:32;94482.19;;;1.82;100.00
7990;BME280;4040;42.848;23.034;2023-04-05T05:28:23;94510.44;;;2.38;100.00
7990;BME280;4040;42.848;23.034;2023-04-05T05:34:13;94513.28;;;2.49;100.00
7990;BME280;4040;42.848;23.034;2023-04-05T05:40:06;94493.13;;;2.48;100.00
7990;BME280;4040;42.848;23.034;2023-04-05T05:45:59;94509.59;;;2.83;100.00
7990;BME280;4040;42.848;23.034;2023-04-05T05:51:49;94515.00;;;2.64;100.00
7990;BME280;4040;42.848;23.034;2023-04-05T05:57:39;94486.97;;;2.44;100.00
7990;BME280;4040;42.848;23.034;2023-04-05T06:03:28;94525.03;;;2.74;100.00
7990;BME280;4040;42.848;23.034;2023-04-05T06:09:18;94531.22;;;2.55;100.00
7990;BME280;4040;42.848;23.034;2023-04-05T06:19:30;94528.41;;;2.71;100.00
7990;BME280;4040;42.848;23.034;2023-04-05T06:25:20;94516.44;;;2.58;100.00
7990;BME280;4040;42.848;23.034;2023-04-05T06:31:09;94514.78;;;2.76;100.00
7990;BME280;4040;42.848;23.034;2023-04-05T06:36:58;94541.72;;;3.00;100.00
7990;BME280;4040;42.848;23.034;2023-04-05T06:42:49;94521.44;;;2.63;100.00
7990;BME280;4040;42.848;23.034;2023-04-05T06:48:37;94537.50;;;2.70;100.00
7990;BME280;4040;42.848;23.034;2023-04-05T06:54:26;94554.16;;;2.93;100.00
7990;BME280;4040;42.848;23.034;2023-04-05T07:00:17;94557.56;;;2.90;100.00
7990;BME280;4040;42.848;23.034;2023-04-05T07:06:07;94579.84;;;2.82;100.00
7990;BME280;4040;42.848;23.034;2023-04-05T07:11:55;94593.25;;;2.89;100.00
7990;BME280;4040;42.848;23.034;2023-04-05T07:22:08;94591.19;;;3.05;100.00
7990;BME280;4040;42.848;23.034;2023-04-05T07:27:57;94594.69;;;3.09;100.00
7990;BME280;4040;42.848;23.034;2023-04-05T07:33:45;94602.78;;;3.75;100.00
7990;BME280;4040;42.848;23.034;2023-04-05T07:39:36;94612.38;;;3.50;100.00
7990;BME280;4040;42.848;23.034;2023-04-05T07:45:25;94608.75;;;3.09;100.00
7990;BME280;4040;42.848;23.034;2023-04-05T07:51:13;94615.66;;;3.40;100.00
7990;BME280;4040;42.848;23.034;2023-04-05T07:57:04;94567.03;;;3.17;100.00
7990;BME280;4040;42.848;23.034;2023-04-05T08:02:53;94640.13;;;3.23;100.00
7990;BME280;4040;42.848;23.034;2023-04-05T08:08:42;94620.53;;;2.86;100.00
7990;BME280;4040;42.848;23.034;2023-04-05T08:14:34;94623.66;;;2.65;100.00
7990;BME280;4040;42.848;23.034;2023-04-05T08:17:01;94643.66;;;2.82;100.00
7990;BME280;4040;42.848;23.034;2023-04-05T08:22:50;94654.38;;;2.63;100.00
7990;BME280;4040;42.848;23.034;2023-04-05T08:28:39;94655.13;;;2.86;100.00
7990;BME280;4040;42.848;23.034;2023-04-05T08:34:29;94635.06;;;2.66;100.00
7990;BME280;4040;42.848;23.034;2023-04-05T08:40:18;94664.88;;;3.01;100.00
7990;BME280;4040;42.848;23.034;2023-04-05T08:46:08;94652.31;;;3.50;100.00
7990;BME280;4040;42.848;23.034;2023-04-05T08:51:59;94665.41;;;3.10;100.00
7990;BME280;4040;42.848;23.034;2023-04-05T08:57:49;94655.16;;;3.38;100.00
7990;BME280;4040;42.848;23.034;2023-04-05T09:03:42;94649.84;;;3.12;100.00
7990;BME280;4040;42.848;23.034;2023-04-05T09:09:35;94660.19;;;3.43;100.00
7990;BME280;4040;42.848;23.034;2023-04-05T09:15:25;94667.22;;;4.17;100.00
7990;BME280;4040;42.848;23.034;2023-04-05T09:21:13;94674.25;;;3.69;100.00
7990;BME280;4040;42.848;23.034;2023-04-05T09:27:07;94676.44;;;4.26;100.00
7990;BME280;4040;42.848;23.034;2023-04-05T09:32:56;94650.28;;;3.43;100.00
7990;BME280;4040;42.848;23.034;2023-04-05T09:38:45;94680.63;;;3.65;100.00
7990;BME280;4040;42.848;23.034;2023-04-05T09:44:55;94680.91;;;3.04;100.00
7990;BME280;4040;42.848;23.034;2023-04-05T09:50:44;94685.97;;;2.90;100.00
7990;BME280;4040;42.848;23.034;2023-04-05T09:56:34;94671.94;;;3.16;100.00
7990;BME280;4040;42.848;23.034;2023-04-05T10:02:24;94673.69;;;3.31;100.00
7990;BME280;4040;42.848;23.034;2023-04-05T10:08:22;94679.16;;;3.41;100.00
7990;BME280;4040;42.848;23.034;2023-04-05T10:14:11;94661.41;;;3.78;100.00
7990;BME280;4040;42.848;23.034;2023-04-05T10:24:21;94652.91;;;4.32;100.00
7990;BME280;4040;42.848;23.034;2023-04-05T10:30:16;94672.81;;;4.78;100.00
7990;BME280;4040;42.848;23.034;2023-04-05T10:36:11;94667.31;;;5.03;100.00
7990;BME280;4040;42.848;23.034;2023-04-05T10:42:07;94667.31;;;5.03;100.00
7990;BME280;4040;42.848;23.034;2023-04-05T10:48:13;94680.44;;;5.22;100.00
7990;BME280;4040;42.848;23.034;2023-04-05T10:54:03;94675.25;;;5.43;100.00
7990;BME280;4040;42.848;23.034;2023-04-05T10:59:55;94678.66;;;4.54;97.93
7990;BME280;4040;42.848;23.034;2023-04-05T11:05:44;94672.22;;;4.55;98.79
7990;BME280;4040;42.848;23.034;2023-04-05T11:11:37;94678.84;;;4.35;98.04
7990;BME280;4040;42.848;23.034;2023-04-05T11:17:28;94691.59;;;4.19;100.00
7990;BME280;4040;42.848;23.034;2023-04-05T11:20:02;94699.19;;;4.17;100.00
7990;BME280;4040;42.848;23.034;2023-04-05T11:25:53;94696.28;;;3.66;100.00
7990;BME280;4040;42.848;23.034;2023-04-05T11:31:56;94679.78;;;3.87;100.00
7990;BME280;4040;42.848;23.034;2023-04-05T11:37:55;94700.91;;;3.73;100.00
7990;BME280;4040;42.848;23.034;2023-04-05T11:43:45;94700.88;;;3.99;100.00
7990;BME280;4040;42.848;23.034;2023-04-05T11:49:34;94686.91;;;3.50;100.00
7990;BME280;4040;42.848;23.034;2023-04-05T11:55:26;94696.84;;;3.53;100.00
7990;BME280;4040;42.848;23.034;2023-04-05T12:01:16;94703.16;;;3.19;100.00
7990;BME280;4040;42.848;23.034;2023-04-05T12:07:24;94696.00;;;3.49;100.00
7990;BME280;4040;42.848;23.034;2023-04-05T12:13:14;94696.28;;;3.70;100.00
7990;BME280;4040;42.848;23.034;2023-04-05T12:19:15;94704.78;;;3.79;100.00
7990;BME280;4040;42.848;23.034;2023-04-05T12:25:05;94693.91;;;4.20;100.00
7990;BME280;4040;42.848;23.034;2023-04-05T12:30:56;94689.97;;;4.07;100.00
7990;BME280;4040;42.848;23.034;2023-04-05T12:36:45;94688.28;;;3.66;100.00
7990;BME280;4040;42.848;23.034;2023-04-05T12:42:35;94694.31;;;3.63;100.00
7990;BME280;4040;42.848;23.034;2023-04-05T12:48:26;94692.59;;;3.78;100.00
7990;BME280;4040;42.848;23.034;2023-04-05T12:54:20;94680.63;;;3.65;100.00
7990;BME280;4040;42.848;23.034;2023-04-05T13:00:09;94701.81;;;3.84;100.00
7990;BME280;4040;42.848;23.034;2023-04-05T13:05:59;94698.88;;;3.37;100.00
7990;BME280;4040;42.848;23.034;2023-04-05T13:11:49;94700.06;;;3.65;100.00
7990;BME280;4040;42.848;23.034;2023-04-05T13:17:38;94696.66;;;3.42;100.00
7990;BME280;4040;42.848;23.034;2023-04-05T13:23:28;94695.06;;;3.34;100.00
7990;BME280;4040;42.848;23.034;2023-04-05T13:29:17;94718.41;;;3.22;100.00
7990;BME280;4040;42.848;23.034;2023-04-05T13:35:06;94707.06;;;3.25;100.00
7990;BME280;4040;42.848;23.034;2023-04-05T13:40:57;94693.81;;;3.06;100.00
7990;BME280;4040;42.848;23.034;2023-04-05T13:46:45;94716.94;;;3.24;100.00
7990;BME280;4040;42.848;23.034;2023-04-05T13:52:34;94711.50;;;2.95;100.00
7990;BME280;4040;42.848;23.034;2023-04-05T13:58:25;94725.34;;;3.04;100.00
7990;BME280;4040;42.848;23.034;2023-04-05T14:04:14;94719.59;;;3.02;100.00
7990;BME280;4040;42.848;23.034;2023-04-05T14:10:03;94722.44;;;2.90;100.00
7990;BME280;4040;42.848;23.034;2023-04-05T14:15:54;94708.03;;;2.91;100.00
7990;BME280;4040;42.848;23.034;2023-04-05T14:25:14;94723.84;;;3.29;100.00
7990;BME280;4040;42.848;23.034;2023-04-05T14:31:05;94730.72;;;3.30;100.00
7990;BME280;4040;42.848;23.034;2023-04-05T14:36:53;94728.94;;;3.15;100.00
7990;BME280;4040;42.848;23.034;2023-04-05T14:42:44;94737.22;;;3.10;100.00
7990;BME280;4040;42.848;23.034;2023-04-05T14:48:34;94729.53;;;3.05;100.00
7990;BME280;4040;42.848;23.034;2023-04-05T14:54:24;94712.69;;;2.75;100.00
7990;BME280;4040;42.848;23.034;2023-04-05T15:00:13;94738.28;;;2.83;100.00
7990;BME280;4040;42.848;23.034;2023-04-05T15:06:04;94735.91;;;2.78;100.00
7990;BME280;4040;42.848;23.034;2023-04-05T15:11:53;94741.94;;;2.75;100.00
7990;BME280;4040;42.848;23.034;2023-04-05T15:17:42;94732.00;;;2.72;100.00
7990;BME280;4040;42.848;23.034;2023-04-05T15:27:14;94730.91;;;2.54;100.00
7990;BME280;4040;42.848;23.034;2023-04-05T15:33:03;94735.81;;;2.33;100.00
7990;BME280;4040;42.848;23.034;2023-04-05T15:38:52;94741.84;;;2.30;100.00
7990;BME280;4040;42.848;23.034;2023-04-05T15:44:42;94741.13;;;2.33;100.00
7990;BME280;4040;42.848;23.034;2023-04-05T15:50:31;94726.47;;;2.20;100.00
7990;BME280;4040;42.848;23.034;2023-04-05T15:56:20;94738.78;;;2.28;100.00
7990;BME280;4040;42.848;23.034;2023-04-05T16:02:11;94750.13;;;2.25;100.00
7990;BME280;4040;42.848;23.034;2023-04-05T16:07:59;94755.44;;;2.25;100.00
7990;BME280;4040;42.848;23.034;2023-04-05T16:13:48;94759.13;;;2.21;100.00
7990;BME280;4040;42.848;23.034;2023-04-05T16:19:38;94758.91;;;2.29;100.00
7990;BME280;4040;42.848;23.034;2023-04-05T16:29:28;94762.53;;;2.21;100.00
7990;BME280;4040;42.848;23.034;2023-04-05T16:35:19;94765.28;;;2.25;100.00
7990;BME280;4040;42.848;23.034;2023-04-05T16:41:08;94662.81;;;1.51;100.00
7990;BME280;4040;42.848;23.034;2023-04-05T16:46:57;94754.00;;;2.12;100.00
7990;BME280;4040;42.848;23.034;2023-04-05T16:52:47;94754.22;;;2.04;100.00
7990;BME280;4040;42.848;23.034;2023-04-05T16:58:36;94756.66;;;1.93;100.00
7990;BME280;4040;42.848;23.034;2023-04-05T17:04:44;94748.00;;;1.96;100.00
7990;BME280;4040;42.848;23.034;2023-04-05T17:10:35;94756.22;;;1.91;100.00
7990;BME280;4040;42.848;23.034;2023-04-05T17:16:24;94754.00;;;1.93;100.00
7990;BME280;4040;42.848;23.034;2023-04-05T17:22:13;94758.63;;;1.96;100.00
7990;BME280;4040;42.848;23.034;2023-04-05T17:32:25;94766.41;;;1.89;100.00
7990;BME280;4040;42.848;23.034;2023-04-05T17:38:14;94739.16;;;1.73;100.00
7990;BME280;4040;42.848;23.034;2023-04-05T17:44:03;94772.31;;;1.98;100.00
7990;BME280;4040;42.848;23.034;2023-04-05T17:49:54;94781.22;;;1.90;100.00
7990;BME280;4040;42.848;23.034;2023-04-05T17:55:42;94781.94;;;1.87;100.00
7990;BME280;4040;42.848;23.034;2023-04-05T18:01:31;94779.53;;;1.82;100.00
7990;BME280;4040;42.848;23.034;2023-04-05T18:07:22;94780.78;;;1.69;100.00
7990;BME280;4040;42.848;23.034;2023-04-05T18:13:11;94782.59;;;1.65;100.00
7990;BME280;4040;42.848;23.034;2023-04-05T18:18:59;94784.38;;;1.61;100.00
7990;BME280;4040;42.848;23.034;2023-04-05T18:24:50;94783.53;;;1.57;100.00
7990;BME280;4040;42.848;23.034;2023-04-05T18:35:00;94769.34;;;1.34;100.00
7990;BME280;4040;42.848;23.034;2023-04-05T18:40:58;94794.34;;;1.49;100.00
7990;BME280;4040;42.848;23.034;2023-04-05T18:46:47;94797.16;;;1.40;100.00
7990;BME280;4040;42.848;23.034;2023-04-05T18:52:36;94799.47;;;1.26;100.00
7990;BME280;4040;42.848;23.034;2023-04-05T18:58:26;94797.25;;;1.28;100.00
7990;BME280;4040;42.848;23.034;2023-04-05T19:04:15;94803.41;;;1.01;100.00
7990;BME280;4040;42.848;23.034;2023-04-05T19:10:05;94808.13;;;1.08;100.00
7990;BME280;4040;42.848;23.034;2023-04-05T19:15:55;94808.94;;;0.96;100.00
7990;BME280;4040;42.848;23.034;2023-04-05T19:21:44;94804.34;;;0.93;100.00
7990;BME280;4040;42.848;23.034;2023-04-05T19:27:33;94814.00;;;1.01;100.00
7990;BME280;4040;42.848;23.034;2023-04-05T19:37:46;94812.47;;;1.00;100.00
7990;BME280;4040;42.848;23.034;2023-04-05T19:43:34;94801.00;;;0.96;100.00
7990;BME280;4040;42.848;23.034;2023-04-05T19:49:31;94769.03;;;0.89;100.00
7990;BME280;4040;42.848;23.034;2023-04-05T19:55:30;94789.03;;;1.02;100.00
7990;BME280;4040;42.848;23.034;2023-04-05T20:01:31;94785.44;;;0.95;100.00
7990;BME280;4040;42.848;23.034;2023-04-05T20:07:20;94788.25;;;1.02;100.00
7990;BME280;4040;42.848;23.034;2023-04-05T20:13:11;94775.56;;;0.80;100.00
7990;BME280;4040;42.848;23.034;2023-04-05T20:19:01;94788.59;;;0.85;100.00
7990;BME280;4040;42.848;23.034;2023-04-05T20:24:50;94788.50;;;0.81;100.00
7990;BME280;4040;42.848;23.034;2023-04-05T20:30:41;94788.66;;;0.88;100.00
7990;BME280;4040;42.848;23.034;2023-04-05T20:40:51;94785.34;;;0.91;100.00
7990;BME280;4040;42.848;23.034;2023-04-05T20:46:42;94785.44;;;1.10;100.00
7990;BME280;4040;42.848;23.034;2023-04-05T20:52:30;94795.59;;;1.08;100.00
7990;BME280;4040;42.848;23.034;2023-04-05T20:58:19;94793.41;;;0.95;100.00
7990;BME280;4040;42.848;23.034;2023-04-05T21:04:10;94796.19;;;0.86;100.00
7990;BME280;4040;42.848;23.034;2023-04-05T21:09:58;94790.38;;;0.96;100.00
7990;BME280;4040;42.848;23.034;2023-04-05T21:15:48;94791.25;;;1.00;100.00
7990;BME280;4040;42.848;23.034;2023-04-05T21:21:38;94800.06;;;1.04;100.00
7990;BME280;4040;42.848;23.034;2023-04-05T21:27:26;94799.97;;;1.16;100.00
7990;BME280;4040;42.848;23.034;2023-04-05T21:33:15;94799.13;;;1.12;100.00
7990;BME280;4040;42.848;23.034;2023-04-05T21:43:27;94805.81;;;1.22;100.00
7990;BME280;4040;42.848;23.034;2023-04-05T21:49:16;94795.38;;;1.13;100.00
7990;BME280;4040;42.848;23.034;2023-04-05T21:55:05;94796.72;;;1.07;100.00
7990;BME280;4040;42.848;23.034;2023-04-05T22:08:33;94798.41;;;0.84;100.00
7990;BME280;4040;42.848;23.034;2023-04-05T22:14:21;94794.16;;;0.95;100.00
7990;BME280;4040;42.848;23.034;2023-04-05T22:20:11;94798.09;;;1.01;100.00
7990;BME280;4040;42.848;23.034;2023-04-05T22:26:01;94808.22;;;1.11;100.00
7990;BME280;4040;42.848;23.034;2023-04-05T22:31:50;94792.63;;;0.94;100.00
7990;BME280;4040;42.848;23.034;2023-04-05T22:37:39;94789.78;;;0.87;100.00
7990;BME280;4040;42.848;23.034;2023-04-05T22:43:29;94778.06;;;1.04;100.00
7990;BME280;4040;42.848;23.034;2023-04-05T22:49:17;94772.63;;;1.12;100.00
7990;BME280;4040;42.848;23.034;2023-04-05T22:55:07;94768.16;;;1.16;100.00
7990;BME280;4040;42.848;23.034;2023-04-05T23:00:58;94758.47;;;1.24;100.00
7990;BME280;4040;42.848;23.034;2023-04-05T23:03:26;94756.19;;;1.22;100.00
7990;BME280;4040;42.848;23.034;2023-04-05T23:09:15;94752.25;;;1.16;100.00
7990;BME280;4040;42.848;23.034;2023-04-05T23:15:05;94740.19;;;1.19;100.00
7990;BME280;4040;42.848;23.034;2023-04-05T23:20:55;94736.50;;;1.23;100.00
7990;BME280;4040;42.848;23.034;2023-04-05T23:26:44;94731.19;;;1.23;100.00
7990;BME280;4040;42.848;23.034;2023-04-05T23:32:32;94715.38;;;1.11;100.00
7990;BME280;4040;42.848;23.034;2023-04-05T23:38:23;94712.88;;;1.18;100.00
7990;BME280;4040;42.848;23.034;2023-04-05T23:44:11;94711.63;;;1.12;100.00
7990;BME280;4040;42.848;23.034;2023-04-05T23:50:20;94708.97;;;1.12;100.00
7990;BME280;4040;42.848;23.034;2023-04-05T23:56:11;94708.38;;;1.19;100.00
